Meath Environmental Platform

Observations for Trim Patrick St

Time AQI Temp °C Hum % Pres Pa CO μg/m³ H₂S μg/m³ NO μg/m³ NO₂ μg/m³ O₃ μg/m³ SO₂ μg/m³ PM1 μg/m³ PM2.5 μg/m³ PM10 μg/m³
Thursday 27 August 2026
23:07 3 17.7 87 38,460 0.13 2.58 1.17 13.12 37.9 0 18.29 26.05 28.65
23:06 3 17.7 87 38,460 0.12 2.66 1.4 13.65 33.41 0 18.29 28.79 31.67
23:05 3 17.7 87 38,460 0.12 2.29 1.49 13.65 36.57 0 20.86 28.1 30.92
23:04 3 17.7 87 38,460 0.13 1.87 1.11 12.82 37.41 0 19.14 26.06 28.67
23:03 3 17.8 87 38,460 0.12 2.95 1.01 13.63 35.7 0.3 20 27.43 30.18
23:02 3 17.7 87 38,460 0.12 2.4 1.11 12.64 39.28 0 18.29 26.75 29.42
23:01 3 17.7 87 38,460 0.13 2.45 0.99 13.31 34.03 0 19.14 27.43 30.18
23:00 3 17.7 87 38,460 0.13 2.29 0.86 12.72 37.36 0 20 29.49 32.44
22:59 3 17.7 87 38,460 0.12 2.5 1.02 13.52 34.31 0 20 26.75 29.42
22:58 3 17.7 87 38,460 0.14 2.37 0.89 12.91 36.93 0 18.29 26.75 29.42
22:57 3 17.8 87 38,460 0.12 2.24 0.94 12.8 38.57 0 21.72 28.8 31.69
22:56 3 17.7 87 38,460 0.13 2.63 0.92 13.1 37.64 0 20 27.43 30.18
22:55 3 17.7 86 38,460 0.14 2.53 1.02 13.3 39.27 0 18.29 26.07 28.68
22:54 3 17.8 86 38,460 0.12 1.95 0.97 12.7 37.88 0 20.86 27.45 30.19
22:53 3 17.8 86 38,460 0.12 2.21 1.3 12.88 37.75 0 20 27.45 30.19
22:52 3 17.8 86 38,460 0.13 1.95 1.26 12.7 39.54 0 20.86 28.82 31.7
22:51 3 17.8 86 38,460 0.12 2.61 1.54 13.08 36.39 0 18.29 27.45 30.19
22:50 3 17.8 86 38,460 0.11 2.29 1.98 13.18 40.24 0 19.14 28.13 28.71
22:49 3 17.7 86 38,460 0.13 2.27 2.8 13.28 38.02 0 19.14 26.77 27.45
22:47 3 17.8 86 38,460 0.12 2.11 2.01 12.87 38.49 0 20.86 28.15 28.74